sensor_id;sensor_type;location;lat;lon;timestamp;P1;durP1;ratioP1;P2;durP2;ratioP2
62788;SDS011;66401;42.016;21.454;2023-10-19T00:00:41;17.20;;;13.10;;
62788;SDS011;66401;42.016;21.454;2023-10-19T00:03:11;15.70;;;12.87;;
62788;SDS011;66401;42.016;21.454;2023-10-19T00:05:38;16.77;;;12.13;;
62788;SDS011;66401;42.016;21.454;2023-10-19T00:08:04;13.77;;;10.10;;
62788;SDS011;66401;42.016;21.454;2023-10-19T00:10:43;14.07;;;9.83;;
62788;SDS011;66401;42.016;21.454;2023-10-19T00:13:12;14.90;;;9.47;;
62788;SDS011;66401;42.016;21.454;2023-10-19T00:15:39;11.67;;;8.87;;
62788;SDS011;66401;42.016;21.454;2023-10-19T00:18:18;10.40;;;7.87;;
62788;SDS011;66401;42.016;21.454;2023-10-19T00:20:50;13.23;;;9.17;;
62788;SDS011;66401;42.016;21.454;2023-10-19T00:23:18;11.70;;;8.83;;
62788;SDS011;66401;42.016;21.454;2023-10-19T00:25:54;10.40;;;8.30;;
62788;SDS011;66401;42.016;21.454;2023-10-19T00:28:20;11.47;;;8.60;;
62788;SDS011;66401;42.016;21.454;2023-10-19T00:30:47;12.87;;;8.77;;
62788;SDS011;66401;42.016;21.454;2023-10-19T00:33:24;12.77;;;8.50;;
62788;SDS011;66401;42.016;21.454;2023-10-19T00:35:53;11.50;;;8.67;;
62788;SDS011;66401;42.016;21.454;2023-10-19T00:38:26;13.03;;;8.63;;
62788;SDS011;66401;42.016;21.454;2023-10-19T00:40:55;13.10;;;9.80;;
62788;SDS011;66401;42.016;21.454;2023-10-19T00:43:29;12.63;;;9.30;;
62788;SDS011;66401;42.016;21.454;2023-10-19T00:46:00;16.87;;;10.07;;
62788;SDS011;66401;42.016;21.454;2023-10-19T00:48:42;20.43;;;11.67;;
62788;SDS011;66401;42.016;21.454;2023-10-19T00:51:12;17.37;;;11.07;;
62788;SDS011;66401;42.016;21.454;2023-10-19T00:54:42;16.33;;;10.43;;
62788;SDS011;66401;42.016;21.454;2023-10-19T00:56:56;16.70;;;10.03;;
62788;SDS011;66401;42.016;21.454;2023-10-19T00:59:24;19.03;;;10.17;;
62788;SDS011;66401;42.016;21.454;2023-10-19T01:02:11;15.03;;;9.00;;
62788;SDS011;66401;42.016;21.454;2023-10-19T01:04:45;13.13;;;8.63;;
62788;SDS011;66401;42.016;21.454;2023-10-19T01:07:33;13.03;;;9.13;;
62788;SDS011;66401;42.016;21.454;2023-10-19T01:10:03;12.70;;;8.80;;
62788;SDS011;66401;42.016;21.454;2023-10-19T01:12:48;14.17;;;8.50;;
62788;SDS011;66401;42.016;21.454;2023-10-19T01:15:17;15.20;;;9.47;;
62788;SDS011;66401;42.016;21.454;2023-10-19T01:17:49;12.40;;;9.30;;
62788;SDS011;66401;42.016;21.454;2023-10-19T01:20:19;13.50;;;9.57;;
62788;SDS011;66401;42.016;21.454;2023-10-19T01:28:09;12.63;;;9.80;;
62788;SDS011;66401;42.016;21.454;2023-10-19T01:30:36;14.53;;;9.43;;
62788;SDS011;66401;42.016;21.454;2023-10-19T01:33:03;14.53;;;10.47;;
62788;SDS011;66401;42.016;21.454;2023-10-19T01:35:29;14.43;;;9.57;;
62788;SDS011;66401;42.016;21.454;2023-10-19T01:38:14;15.73;;;10.13;;
62788;SDS011;66401;42.016;21.454;2023-10-19T01:40:40;14.43;;;10.20;;
62788;SDS011;66401;42.016;21.454;2023-10-19T01:43:11;13.70;;;10.00;;
62788;SDS011;66401;42.016;21.454;2023-10-19T01:45:46;14.80;;;9.53;;
62788;SDS011;66401;42.016;21.454;2023-10-19T01:48:13;15.77;;;9.77;;
62788;SDS011;66401;42.016;21.454;2023-10-19T01:50:39;16.43;;;11.13;;
62788;SDS011;66401;42.016;21.454;2023-10-19T01:53:05;15.20;;;9.63;;
62788;SDS011;66401;42.016;21.454;2023-10-19T01:55:41;18.87;;;9.73;;
62788;SDS011;66401;42.016;21.454;2023-10-19T01:58:07;14.10;;;9.90;;
62788;SDS011;66401;42.016;21.454;2023-10-19T02:00:33;12.87;;;8.63;;
62788;SDS011;66401;42.016;21.454;2023-10-19T02:03:05;12.40;;;8.47;;
62788;SDS011;66401;42.016;21.454;2023-10-19T02:05:32;11.70;;;8.00;;
62788;SDS011;66401;42.016;21.454;2023-10-19T02:08:05;10.70;;;7.83;;
62788;SDS011;66401;42.016;21.454;2023-10-19T02:10:32;12.50;;;7.03;;
62788;SDS011;66401;42.016;21.454;2023-10-19T02:13:02;11.40;;;7.17;;
62788;SDS011;66401;42.016;21.454;2023-10-19T02:15:32;10.40;;;7.33;;
62788;SDS011;66401;42.016;21.454;2023-10-19T02:18:01;9.77;;;7.10;;
62788;SDS011;66401;42.016;21.454;2023-10-19T02:20:28;9.20;;;6.93;;
62788;SDS011;66401;42.016;21.454;2023-10-19T02:22:54;8.33;;;6.83;;
62788;SDS011;66401;42.016;21.454;2023-10-19T02:25:22;11.20;;;6.60;;
62788;SDS011;66401;42.016;21.454;2023-10-19T02:27:50;8.93;;;6.93;;
62788;SDS011;66401;42.016;21.454;2023-10-19T02:30:17;12.87;;;6.57;;
62788;SDS011;66401;42.016;21.454;2023-10-19T02:32:43;9.67;;;5.70;;
62788;SDS011;66401;42.016;21.454;2023-10-19T02:35:08;9.87;;;6.40;;
62788;SDS011;66401;42.016;21.454;2023-10-19T02:37:34;7.73;;;6.20;;
62788;SDS011;66401;42.016;21.454;2023-10-19T02:40:00;9.83;;;6.20;;
62788;SDS011;66401;42.016;21.454;2023-10-19T02:42:25;13.63;;;6.23;;
62788;SDS011;66401;42.016;21.454;2023-10-19T02:44:51;6.90;;;5.73;;
62788;SDS011;66401;42.016;21.454;2023-10-19T02:47:17;11.30;;;6.23;;
62788;SDS011;66401;42.016;21.454;2023-10-19T02:49:42;8.70;;;6.07;;
62788;SDS011;66401;42.016;21.454;2023-10-19T02:52:15;10.40;;;6.40;;
62788;SDS011;66401;42.016;21.454;2023-10-19T02:54:41;7.60;;;6.07;;
62788;SDS011;66401;42.016;21.454;2023-10-19T02:57:07;8.80;;;6.13;;
62788;SDS011;66401;42.016;21.454;2023-10-19T02:59:34;11.67;;;6.33;;
62788;SDS011;66401;42.016;21.454;2023-10-19T03:02:01;6.67;;;5.57;;
62788;SDS011;66401;42.016;21.454;2023-10-19T03:04:42;8.33;;;6.47;;
62788;SDS011;66401;42.016;21.454;2023-10-19T03:07:09;10.40;;;6.73;;
62788;SDS011;66401;42.016;21.454;2023-10-19T03:09:38;10.80;;;6.07;;
62788;SDS011;66401;42.016;21.454;2023-10-19T03:12:19;6.90;;;5.83;;
62788;SDS011;66401;42.016;21.454;2023-10-19T03:14:50;8.37;;;5.63;;
62788;SDS011;66401;42.016;21.454;2023-10-19T03:17:16;9.60;;;5.63;;
62788;SDS011;66401;42.016;21.454;2023-10-19T03:19:41;6.63;;;5.83;;
62788;SDS011;66401;42.016;21.454;2023-10-19T03:22:07;10.13;;;6.13;;
62788;SDS011;66401;42.016;21.454;2023-10-19T03:24:33;8.73;;;6.07;;
62788;SDS011;66401;42.016;21.454;2023-10-19T03:27:09;9.90;;;6.13;;
62788;SDS011;66401;42.016;21.454;2023-10-19T03:29:49;8.67;;;6.33;;
62788;SDS011;66401;42.016;21.454;2023-10-19T03:32:19;9.97;;;5.57;;
62788;SDS011;66401;42.016;21.454;2023-10-19T03:34:47;9.43;;;6.33;;
62788;SDS011;66401;42.016;21.454;2023-10-19T03:37:14;11.33;;;7.30;;
62788;SDS011;66401;42.016;21.454;2023-10-19T03:39:39;11.33;;;8.07;;
62788;SDS011;66401;42.016;21.454;2023-10-19T03:42:06;8.33;;;6.97;;
62788;SDS011;66401;42.016;21.454;2023-10-19T03:44:32;10.37;;;6.70;;
62788;SDS011;66401;42.016;21.454;2023-10-19T03:47:13;9.97;;;7.17;;
62788;SDS011;66401;42.016;21.454;2023-10-19T03:49:44;9.23;;;6.30;;
62788;SDS011;66401;42.016;21.454;2023-10-19T03:52:11;8.90;;;6.03;;
62788;SDS011;66401;42.016;21.454;2023-10-19T03:54:37;10.00;;;5.23;;
62788;SDS011;66401;42.016;21.454;2023-10-19T03:57:07;7.27;;;5.60;;
62788;SDS011;66401;42.016;21.454;2023-10-19T03:59:49;7.23;;;5.70;;
62788;SDS011;66401;42.016;21.454;2023-10-19T04:02:21;7.10;;;5.47;;
62788;SDS011;66401;42.016;21.454;2023-10-19T04:04:47;7.93;;;5.50;;
62788;SDS011;66401;42.016;21.454;2023-10-19T04:07:13;9.23;;;5.40;;
62788;SDS011;66401;42.016;21.454;2023-10-19T04:09:46;6.67;;;5.13;;
62788;SDS011;66401;42.016;21.454;2023-10-19T04:12:25;7.03;;;5.80;;
62788;SDS011;66401;42.016;21.454;2023-10-19T04:14:54;10.43;;;6.00;;
62788;SDS011;66401;42.016;21.454;2023-10-19T04:17:20;9.63;;;5.97;;
62788;SDS011;66401;42.016;21.454;2023-10-19T04:19:47;10.70;;;6.00;;
62788;SDS011;66401;42.016;21.454;2023-10-19T04:22:16;6.10;;;5.50;;
62788;SDS011;66401;42.016;21.454;2023-10-19T04:24:49;7.40;;;4.67;;
62788;SDS011;66401;42.016;21.454;2023-10-19T04:27:15;7.20;;;5.67;;
62788;SDS011;66401;42.016;21.454;2023-10-19T04:29:41;6.77;;;5.30;;
62788;SDS011;66401;42.016;21.454;2023-10-19T04:32:08;6.47;;;5.40;;
62788;SDS011;66401;42.016;21.454;2023-10-19T04:34:35;5.93;;;5.37;;
62788;SDS011;66401;42.016;21.454;2023-10-19T04:37:02;10.30;;;6.20;;
62788;SDS011;66401;42.016;21.454;2023-10-19T04:39:28;6.83;;;5.93;;
62788;SDS011;66401;42.016;21.454;2023-10-19T04:41:55;5.47;;;4.87;;
62788;SDS011;66401;42.016;21.454;2023-10-19T04:44:21;6.63;;;4.73;;
62788;SDS011;66401;42.016;21.454;2023-10-19T04:46:47;8.37;;;5.40;;
62788;SDS011;66401;42.016;21.454;2023-10-19T04:49:13;6.60;;;5.50;;
62788;SDS011;66401;42.016;21.454;2023-10-19T04:51:39;6.80;;;5.40;;
62788;SDS011;66401;42.016;21.454;2023-10-19T04:54:05;6.80;;;6.00;;
62788;SDS011;66401;42.016;21.454;2023-10-19T04:56:33;8.17;;;6.50;;
62788;SDS011;66401;42.016;21.454;2023-10-19T04:59:01;11.17;;;6.37;;
62788;SDS011;66401;42.016;21.454;2023-10-19T05:01:27;11.23;;;7.23;;
62788;SDS011;66401;42.016;21.454;2023-10-19T05:03:53;10.87;;;7.13;;
62788;SDS011;66401;42.016;21.454;2023-10-19T05:06:18;10.43;;;7.27;;
62788;SDS011;66401;42.016;21.454;2023-10-19T05:08:44;15.13;;;7.50;;
62788;SDS011;66401;42.016;21.454;2023-10-19T05:11:11;14.77;;;7.87;;
62788;SDS011;66401;42.016;21.454;2023-10-19T05:13:37;13.67;;;8.20;;
62788;SDS011;66401;42.016;21.454;2023-10-19T05:16:04;11.93;;;6.90;;
62788;SDS011;66401;42.016;21.454;2023-10-19T05:18:29;9.77;;;6.63;;
62788;SDS011;66401;42.016;21.454;2023-10-19T05:20:55;8.97;;;6.90;;
62788;SDS011;66401;42.016;21.454;2023-10-19T05:23:22;8.47;;;6.47;;
62788;SDS011;66401;42.016;21.454;2023-10-19T05:25:49;8.37;;;5.93;;
62788;SDS011;66401;42.016;21.454;2023-10-19T05:28:18;11.43;;;5.53;;
62788;SDS011;66401;42.016;21.454;2023-10-19T05:30:46;7.00;;;5.57;;
62788;SDS011;66401;42.016;21.454;2023-10-19T05:33:14;8.27;;;5.57;;
62788;SDS011;66401;42.016;21.454;2023-10-19T05:35:39;7.93;;;5.17;;
62788;SDS011;66401;42.016;21.454;2023-10-19T05:38:08;7.13;;;5.93;;
62788;SDS011;66401;42.016;21.454;2023-10-19T05:40:34;9.90;;;6.77;;
62788;SDS011;66401;42.016;21.454;2023-10-19T05:43:00;9.83;;;6.10;;
62788;SDS011;66401;42.016;21.454;2023-10-19T05:45:27;8.17;;;6.07;;
62788;SDS011;66401;42.016;21.454;2023-10-19T05:47:54;9.63;;;6.73;;
62788;SDS011;66401;42.016;21.454;2023-10-19T05:50:20;11.27;;;6.50;;
62788;SDS011;66401;42.016;21.454;2023-10-19T05:52:46;9.90;;;7.20;;
62788;SDS011;66401;42.016;21.454;2023-10-19T05:55:13;15.90;;;7.20;;
62788;SDS011;66401;42.016;21.454;2023-10-19T05:57:39;12.90;;;8.30;;
62788;SDS011;66401;42.016;21.454;2023-10-19T06:00:09;16.33;;;8.87;;
62788;SDS011;66401;42.016;21.454;2023-10-19T06:02:44;11.00;;;6.80;;
62788;SDS011;66401;42.016;21.454;2023-10-19T06:05:11;10.47;;;6.73;;
62788;SDS011;66401;42.016;21.454;2023-10-19T06:07:40;12.33;;;8.03;;
62788;SDS011;66401;42.016;21.454;2023-10-19T06:10:16;10.20;;;7.23;;
62788;SDS011;66401;42.016;21.454;2023-10-19T06:12:44;11.47;;;7.33;;
62788;SDS011;66401;42.016;21.454;2023-10-19T06:15:11;10.93;;;8.37;;
62788;SDS011;66401;42.016;21.454;2023-10-19T06:17:41;10.87;;;7.67;;
62788;SDS011;66401;42.016;21.454;2023-10-19T06:20:07;12.57;;;7.70;;
62788;SDS011;66401;42.016;21.454;2023-10-19T06:22:45;20.43;;;9.43;;
62788;SDS011;66401;42.016;21.454;2023-10-19T06:25:15;19.77;;;10.77;;
62788;SDS011;66401;42.016;21.454;2023-10-19T06:27:42;17.20;;;8.27;;
62788;SDS011;66401;42.016;21.454;2023-10-19T06:30:08;10.70;;;6.67;;
62788;SDS011;66401;42.016;21.454;2023-10-19T06:32:35;8.93;;;7.20;;
62788;SDS011;66401;42.016;21.454;2023-10-19T06:35:02;8.63;;;5.90;;
62788;SDS011;66401;42.016;21.454;2023-10-19T06:37:28;8.67;;;5.90;;
62788;SDS011;66401;42.016;21.454;2023-10-19T06:39:53;6.43;;;5.73;;
62788;SDS011;66401;42.016;21.454;2023-10-19T06:42:19;11.80;;;5.80;;
62788;SDS011;66401;42.016;21.454;2023-10-19T06:44:44;10.13;;;5.03;;
62788;SDS011;66401;42.016;21.454;2023-10-19T06:47:10;7.90;;;5.23;;
62788;SDS011;66401;42.016;21.454;2023-10-19T06:49:37;6.13;;;5.30;;
62788;SDS011;66401;42.016;21.454;2023-10-19T06:52:03;6.70;;;4.67;;
62788;SDS011;66401;42.016;21.454;2023-10-19T06:54:30;5.97;;;4.77;;
62788;SDS011;66401;42.016;21.454;2023-10-19T06:56:56;7.20;;;4.83;;
62788;SDS011;66401;42.016;21.454;2023-10-19T06:59:21;6.40;;;5.20;;
62788;SDS011;66401;42.016;21.454;2023-10-19T07:01:49;5.73;;;5.17;;
62788;SDS011;66401;42.016;21.454;2023-10-19T07:04:15;4.70;;;4.30;;
62788;SDS011;66401;42.016;21.454;2023-10-19T07:06:40;5.90;;;4.50;;
62788;SDS011;66401;42.016;21.454;2023-10-19T07:09:06;5.17;;;4.30;;
62788;SDS011;66401;42.016;21.454;2023-10-19T07:11:32;3.97;;;3.63;;
62788;SDS011;66401;42.016;21.454;2023-10-19T07:14:00;7.57;;;5.80;;
62788;SDS011;66401;42.016;21.454;2023-10-19T07:16:26;10.10;;;5.10;;
62788;SDS011;66401;42.016;21.454;2023-10-19T07:18:51;7.03;;;4.70;;
62788;SDS011;66401;42.016;21.454;2023-10-19T07:21:18;5.40;;;3.87;;
62788;SDS011;66401;42.016;21.454;2023-10-19T07:23:45;8.87;;;4.30;;
62788;SDS011;66401;42.016;21.454;2023-10-19T07:26:14;4.57;;;3.97;;
62788;SDS011;66401;42.016;21.454;2023-10-19T07:28:40;5.13;;;3.83;;
62788;SDS011;66401;42.016;21.454;2023-10-19T07:31:07;4.20;;;3.40;;
62788;SDS011;66401;42.016;21.454;2023-10-19T07:33:38;9.47;;;4.00;;
62788;SDS011;66401;42.016;21.454;2023-10-19T07:36:11;9.07;;;3.90;;
62788;SDS011;66401;42.016;21.454;2023-10-19T07:38:40;6.47;;;3.53;;
62788;SDS011;66401;42.016;21.454;2023-10-19T07:41:07;4.37;;;3.60;;
62788;SDS011;66401;42.016;21.454;2023-10-19T07:43:35;7.30;;;4.17;;
62788;SDS011;66401;42.016;21.454;2023-10-19T07:46:01;7.93;;;4.57;;
62788;SDS011;66401;42.016;21.454;2023-10-19T07:48:26;4.27;;;3.87;;
62788;SDS011;66401;42.016;21.454;2023-10-19T07:50:52;7.50;;;5.13;;
62788;SDS011;66401;42.016;21.454;2023-10-19T07:53:18;5.10;;;4.60;;
62788;SDS011;66401;42.016;21.454;2023-10-19T07:55:44;6.67;;;4.67;;
62788;SDS011;66401;42.016;21.454;2023-10-19T07:58:09;7.03;;;4.83;;
62788;SDS011;66401;42.016;21.454;2023-10-19T08:00:35;5.40;;;4.90;;
62788;SDS011;66401;42.016;21.454;2023-10-19T08:03:01;5.80;;;4.27;;
62788;SDS011;66401;42.016;21.454;2023-10-19T08:05:28;6.87;;;4.80;;
62788;SDS011;66401;42.016;21.454;2023-10-19T08:07:53;4.13;;;3.73;;
62788;SDS011;66401;42.016;21.454;2023-10-19T08:10:19;4.33;;;3.77;;
62788;SDS011;66401;42.016;21.454;2023-10-19T08:12:47;6.20;;;4.67;;
62788;SDS011;66401;42.016;21.454;2023-10-19T08:15:13;4.67;;;4.27;;
62788;SDS011;66401;42.016;21.454;2023-10-19T08:17:41;5.97;;;4.13;;
62788;SDS011;66401;42.016;21.454;2023-10-19T08:20:08;5.57;;;4.47;;
62788;SDS011;66401;42.016;21.454;2023-10-19T08:22:41;4.70;;;3.93;;
62788;SDS011;66401;42.016;21.454;2023-10-19T08:25:11;4.90;;;3.67;;
62788;SDS011;66401;42.016;21.454;2023-10-19T08:27:39;6.33;;;4.23;;
62788;SDS011;66401;42.016;21.454;2023-10-19T08:30:13;3.87;;;3.50;;
62788;SDS011;66401;42.016;21.454;2023-10-19T08:32:40;5.17;;;3.80;;
62788;SDS011;66401;42.016;21.454;2023-10-19T08:35:07;5.43;;;3.93;;
62788;SDS011;66401;42.016;21.454;2023-10-19T08:37:36;6.23;;;4.50;;
62788;SDS011;66401;42.016;21.454;2023-10-19T08:40:04;4.63;;;4.30;;
62788;SDS011;66401;42.016;21.454;2023-10-19T08:42:31;4.30;;;3.53;;
62788;SDS011;66401;42.016;21.454;2023-10-19T08:44:57;7.60;;;4.00;;
62788;SDS011;66401;42.016;21.454;2023-10-19T08:47:24;4.43;;;3.70;;
62788;SDS011;66401;42.016;21.454;2023-10-19T08:49:51;6.40;;;3.80;;
62788;SDS011;66401;42.016;21.454;2023-10-19T08:52:18;4.80;;;3.93;;
62788;SDS011;66401;42.016;21.454;2023-10-19T08:54:47;6.00;;;4.40;;
62788;SDS011;66401;42.016;21.454;2023-10-19T08:57:13;4.97;;;3.60;;
62788;SDS011;66401;42.016;21.454;2023-10-19T08:59:39;4.10;;;3.70;;
62788;SDS011;66401;42.016;21.454;2023-10-19T09:02:05;5.03;;;3.80;;
62788;SDS011;66401;42.016;21.454;2023-10-19T09:04:32;4.07;;;3.73;;
62788;SDS011;66401;42.016;21.454;2023-10-19T09:07:05;5.73;;;3.83;;
62788;SDS011;66401;42.016;21.454;2023-10-19T09:09:35;7.53;;;3.90;;
62788;SDS011;66401;42.016;21.454;2023-10-19T09:12:05;6.23;;;4.10;;
62788;SDS011;66401;42.016;21.454;2023-10-19T09:14:33;4.00;;;3.70;;
62788;SDS011;66401;42.016;21.454;2023-10-19T09:17:07;4.90;;;3.70;;
62788;SDS011;66401;42.016;21.454;2023-10-19T09:19:42;3.23;;;2.90;;
62788;SDS011;66401;42.016;21.454;2023-10-19T09:22:09;3.90;;;3.40;;
62788;SDS011;66401;42.016;21.454;2023-10-19T09:24:51;3.50;;;3.20;;
62788;SDS011;66401;42.016;21.454;2023-10-19T09:27:20;4.27;;;3.83;;
62788;SDS011;66401;42.016;21.454;2023-10-19T09:29:49;5.10;;;3.67;;
62788;SDS011;66401;42.016;21.454;2023-10-19T09:32:17;3.80;;;3.50;;
62788;SDS011;66401;42.016;21.454;2023-10-19T09:34:44;7.90;;;3.80;;
62788;SDS011;66401;42.016;21.454;2023-10-19T09:37:14;4.20;;;3.83;;
62788;SDS011;66401;42.016;21.454;2023-10-19T09:39:41;5.37;;;3.83;;
62788;SDS011;66401;42.016;21.454;2023-10-19T09:42:08;4.60;;;4.20;;
62788;SDS011;66401;42.016;21.454;2023-10-19T09:44:45;4.63;;;4.23;;
62788;SDS011;66401;42.016;21.454;2023-10-19T09:49:57;7.23;;;5.47;;
62788;SDS011;66401;42.016;21.454;2023-10-19T09:52:23;7.87;;;5.47;;
62788;SDS011;66401;42.016;21.454;2023-10-19T09:54:52;6.63;;;5.27;;
62788;SDS011;66401;42.016;21.454;2023-10-19T09:57:35;5.07;;;4.57;;
62788;SDS011;66401;42.016;21.454;2023-10-19T10:00:20;5.97;;;4.23;;
62788;SDS011;66401;42.016;21.454;2023-10-19T10:02:49;4.23;;;3.73;;
62788;SDS011;66401;42.016;21.454;2023-10-19T10:10:46;4.00;;;3.70;;
62788;SDS011;66401;42.016;21.454;2023-10-19T10:15:56;9.13;;;4.80;;
62788;SDS011;66401;42.016;21.454;2023-10-19T10:18:25;5.70;;;4.20;;
62788;SDS011;66401;42.016;21.454;2023-10-19T10:23:54;5.23;;;4.80;;
62788;SDS011;66401;42.016;21.454;2023-10-19T10:26:23;5.70;;;5.10;;
62788;SDS011;66401;42.016;21.454;2023-10-19T10:29:07;5.40;;;4.90;;
62788;SDS011;66401;42.016;21.454;2023-10-19T10:31:45;4.90;;;4.50;;
62788;SDS011;66401;42.016;21.454;2023-10-19T10:36:59;5.97;;;5.43;;
62788;SDS011;66401;42.016;21.454;2023-10-19T10:39:29;5.33;;;4.83;;
62788;SDS011;66401;42.016;21.454;2023-10-19T10:41:59;5.30;;;4.50;;
62788;SDS011;66401;42.016;21.454;2023-10-19T10:44:46;6.17;;;4.50;;
62788;SDS011;66401;42.016;21.454;2023-10-19T10:47:19;6.93;;;5.13;;
62788;SDS011;66401;42.016;21.454;2023-10-19T10:49:56;6.47;;;5.90;;
62788;SDS011;66401;42.016;21.454;2023-10-19T10:52:43;6.73;;;5.20;;
62788;SDS011;66401;42.016;21.454;2023-10-19T10:55:09;6.80;;;5.73;;
62788;SDS011;66401;42.016;21.454;2023-10-19T10:57:37;6.03;;;4.97;;
62788;SDS011;66401;42.016;21.454;2023-10-19T11:00:04;6.33;;;5.10;;
62788;SDS011;66401;42.016;21.454;2023-10-19T11:02:40;6.13;;;5.63;;
62788;SDS011;66401;42.016;21.454;2023-10-19T11:05:14;6.77;;;6.10;;
62788;SDS011;66401;42.016;21.454;2023-10-19T11:08:01;7.03;;;6.03;;
62788;SDS011;66401;42.016;21.454;2023-10-19T11:10:46;6.27;;;5.57;;
62788;SDS011;66401;42.016;21.454;2023-10-19T11:13:12;6.33;;;5.73;;
62788;SDS011;66401;42.016;21.454;2023-10-19T11:15:39;5.77;;;5.20;;
62788;SDS011;66401;42.016;21.454;2023-10-19T11:21:15;6.73;;;6.13;;
62788;SDS011;66401;42.016;21.454;2023-10-19T11:23:49;6.73;;;6.03;;
62788;SDS011;66401;42.016;21.454;2023-10-19T11:26:20;6.80;;;5.57;;
62788;SDS011;66401;42.016;21.454;2023-10-19T11:28:46;6.90;;;6.20;;
62788;SDS011;66401;42.016;21.454;2023-10-19T11:31:22;7.40;;;5.50;;
62788;SDS011;66401;42.016;21.454;2023-10-19T11:33:48;6.93;;;5.80;;
62788;SDS011;66401;42.016;21.454;2023-10-19T11:36:16;10.97;;;5.13;;
62788;SDS011;66401;42.016;21.454;2023-10-19T11:38:43;5.77;;;5.13;;
62788;SDS011;66401;42.016;21.454;2023-10-19T11:41:10;8.33;;;6.80;;
62788;SDS011;66401;42.016;21.454;2023-10-19T11:43:38;6.37;;;5.77;;
62788;SDS011;66401;42.016;21.454;2023-10-19T11:46:07;6.20;;;5.20;;
62788;SDS011;66401;42.016;21.454;2023-10-19T11:48:34;7.20;;;6.50;;
62788;SDS011;66401;42.016;21.454;2023-10-19T11:51:01;5.63;;;4.80;;
62788;SDS011;66401;42.016;21.454;2023-10-19T11:53:31;5.27;;;4.87;;
62788;SDS011;66401;42.016;21.454;2023-10-19T11:56:00;5.13;;;4.73;;
62788;SDS011;66401;42.016;21.454;2023-10-19T11:58:30;4.53;;;4.23;;
62788;SDS011;66401;42.016;21.454;2023-10-19T12:01:00;4.33;;;4.03;;
62788;SDS011;66401;42.016;21.454;2023-10-19T12:03:32;4.47;;;4.17;;
62788;SDS011;66401;42.016;21.454;2023-10-19T12:06:00;5.50;;;5.00;;
62788;SDS011;66401;42.016;21.454;2023-10-19T12:08:29;5.30;;;4.80;;
62788;SDS011;66401;42.016;21.454;2023-10-19T12:10:54;5.67;;;4.33;;
62788;SDS011;66401;42.016;21.454;2023-10-19T12:13:20;5.00;;;4.40;;
62788;SDS011;66401;42.016;21.454;2023-10-19T12:15:45;5.03;;;4.63;;
62788;SDS011;66401;42.016;21.454;2023-10-19T12:18:17;5.43;;;4.93;;
62788;SDS011;66401;42.016;21.454;2023-10-19T12:20:46;5.13;;;4.70;;
62788;SDS011;66401;42.016;21.454;2023-10-19T12:23:12;4.97;;;4.57;;
62788;SDS011;66401;42.016;21.454;2023-10-19T12:25:39;5.57;;;4.67;;
62788;SDS011;66401;42.016;21.454;2023-10-19T12:28:04;4.67;;;4.33;;
62788;SDS011;66401;42.016;21.454;2023-10-19T12:30:30;5.33;;;4.80;;
62788;SDS011;66401;42.016;21.454;2023-10-19T12:33:04;4.70;;;4.30;;
62788;SDS011;66401;42.016;21.454;2023-10-19T12:35:36;4.73;;;4.33;;
62788;SDS011;66401;42.016;21.454;2023-10-19T12:38:16;5.00;;;3.93;;
62788;SDS011;66401;42.016;21.454;2023-10-19T12:40:46;5.07;;;4.67;;
62788;SDS011;66401;42.016;21.454;2023-10-19T12:43:17;4.90;;;4.50;;
62788;SDS011;66401;42.016;21.454;2023-10-19T12:45:44;5.83;;;5.27;;
62788;SDS011;66401;42.016;21.454;2023-10-19T12:48:16;5.17;;;4.77;;
62788;SDS011;66401;42.016;21.454;2023-10-19T12:50:42;4.50;;;4.17;;
62788;SDS011;66401;42.016;21.454;2023-10-19T12:53:08;5.10;;;4.60;;
62788;SDS011;66401;42.016;21.454;2023-10-19T12:55:34;4.80;;;4.40;;
62788;SDS011;66401;42.016;21.454;2023-10-19T12:58:02;7.90;;;5.03;;
62788;SDS011;66401;42.016;21.454;2023-10-19T13:00:37;6.13;;;5.60;;
62788;SDS011;66401;42.016;21.454;2023-10-19T13:03:15;7.40;;;5.03;;
62788;SDS011;66401;42.016;21.454;2023-10-19T13:05:43;5.17;;;4.67;;
62788;SDS011;66401;42.016;21.454;2023-10-19T13:08:12;5.03;;;4.53;;
62788;SDS011;66401;42.016;21.454;2023-10-19T13:10:41;6.27;;;4.10;;
62788;SDS011;66401;42.016;21.454;2023-10-19T13:13:12;5.00;;;4.60;;
62788;SDS011;66401;42.016;21.454;2023-10-19T13:15:40;5.07;;;4.77;;
62788;SDS011;66401;42.016;21.454;2023-10-19T13:18:07;6.83;;;4.60;;
62788;SDS011;66401;42.016;21.454;2023-10-19T13:20:38;4.87;;;4.47;;
62788;SDS011;66401;42.016;21.454;2023-10-19T13:23:06;4.60;;;4.20;;
62788;SDS011;66401;42.016;21.454;2023-10-19T13:25:37;7.13;;;5.13;;
62788;SDS011;66401;42.016;21.454;2023-10-19T13:28:10;5.07;;;4.67;;
62788;SDS011;66401;42.016;21.454;2023-10-19T13:30:47;4.20;;;3.90;;
62788;SDS011;66401;42.016;21.454;2023-10-19T13:33:14;5.90;;;4.73;;
62788;SDS011;66401;42.016;21.454;2023-10-19T13:35:40;5.20;;;4.70;;
62788;SDS011;66401;42.016;21.454;2023-10-19T13:38:07;5.33;;;4.83;;
62788;SDS011;66401;42.016;21.454;2023-10-19T13:40:37;5.53;;;4.97;;
62788;SDS011;66401;42.016;21.454;2023-10-19T13:43:03;5.57;;;4.30;;
62788;SDS011;66401;42.016;21.454;2023-10-19T13:45:32;4.43;;;4.03;;
62788;SDS011;66401;42.016;21.454;2023-10-19T13:47:59;4.97;;;4.53;;
62788;SDS011;66401;42.016;21.454;2023-10-19T13:50:26;4.93;;;4.30;;
62788;SDS011;66401;42.016;21.454;2023-10-19T13:52:54;4.57;;;4.17;;
62788;SDS011;66401;42.016;21.454;2023-10-19T13:55:22;4.37;;;3.97;;
62788;SDS011;66401;42.016;21.454;2023-10-19T13:57:48;5.00;;;4.50;;
62788;SDS011;66401;42.016;21.454;2023-10-19T14:00:15;4.40;;;4.00;;
62788;SDS011;66401;42.016;21.454;2023-10-19T14:02:47;4.10;;;3.80;;
62788;SDS011;66401;42.016;21.454;2023-10-19T14:05:13;4.40;;;4.00;;
62788;SDS011;66401;42.016;21.454;2023-10-19T14:07:39;5.30;;;4.20;;
62788;SDS011;66401;42.016;21.454;2023-10-19T14:10:05;4.97;;;4.03;;
62788;SDS011;66401;42.016;21.454;2023-10-19T14:12:32;4.03;;;3.63;;
62788;SDS011;66401;42.016;21.454;2023-10-19T14:14:58;4.83;;;3.97;;
62788;SDS011;66401;42.016;21.454;2023-10-19T14:17:24;6.47;;;4.00;;
62788;SDS011;66401;42.016;21.454;2023-10-19T14:19:50;5.53;;;3.60;;
62788;SDS011;66401;42.016;21.454;2023-10-19T14:22:16;4.03;;;3.77;;
62788;SDS011;66401;42.016;21.454;2023-10-19T14:24:44;3.87;;;3.57;;
62788;SDS011;66401;42.016;21.454;2023-10-19T14:27:10;5.87;;;3.83;;
62788;SDS011;66401;42.016;21.454;2023-10-19T14:29:35;6.40;;;4.90;;
62788;SDS011;66401;42.016;21.454;2023-10-19T14:32:01;4.90;;;4.50;;
62788;SDS011;66401;42.016;21.454;2023-10-19T14:34:28;4.50;;;4.20;;
62788;SDS011;66401;42.016;21.454;2023-10-19T14:36:53;5.40;;;4.90;;
62788;SDS011;66401;42.016;21.454;2023-10-19T14:39:19;4.77;;;4.37;;
62788;SDS011;66401;42.016;21.454;2023-10-19T14:41:45;5.03;;;4.43;;
62788;SDS011;66401;42.016;21.454;2023-10-19T14:44:11;5.30;;;4.50;;
62788;SDS011;66401;42.016;21.454;2023-10-19T14:46:36;8.47;;;4.50;;
62788;SDS011;66401;42.016;21.454;2023-10-19T14:49:02;5.57;;;5.00;;
62788;SDS011;66401;42.016;21.454;2023-10-19T14:51:27;8.07;;;5.03;;
62788;SDS011;66401;42.016;21.454;2023-10-19T14:53:53;5.73;;;5.00;;
62788;SDS011;66401;42.016;21.454;2023-10-19T14:56:18;7.97;;;5.33;;
62788;SDS011;66401;42.016;21.454;2023-10-19T14:58:44;6.43;;;5.43;;
62788;SDS011;66401;42.016;21.454;2023-10-19T15:01:10;7.13;;;5.13;;
62788;SDS011;66401;42.016;21.454;2023-10-19T15:03:40;5.90;;;5.30;;
62788;SDS011;66401;42.016;21.454;2023-10-19T15:06:05;5.50;;;5.00;;